Goetzville, MI (49736)

4:08 PM EDT on August 31, 2015 (GMT -0400)
Rocky Point | | Change Station
CLOSE
Current Station
Personal Weather Station
Location: Pickford, MI
Elevation: 574 ft
Nearby Weather Stations

Elev 574 ft 46.18 °N, 84.12 °W | Updated 48 seconds ago

Overcast
Overcast
76.6 °F
Feels Like 78 °F
N
0.7
Wind Variable Wind from NW
Gusts 1.3 mph

Today
High -- | Low -- °F
--% Chance of Precip.
Yesterday
High -- | Low -- °F
Precip. -- in
6:55 AM 8:17 PM
Waning Gibbous, 94% visible
Pressure 30.01 in
Visibility 10.0 miles
Clouds Scattered Clouds 1600 ft
Scattered Clouds 5000 ft
Heat Index 78 °F
Dew Point 69 °F
Humidity 77%
Rainfall 0.00 in
Snow Depth Not available.
UV 5 out of 12
Pollen 10.50 out of 12
Air Quality Not available.
Flu Activity Not available.
METAR KDRM 311955Z AUTO 00000KT 10SM SCT016 SCT050 23/18 A3001 RMK AO2 T02290183
Pressure 30.01 in
Visibility 10.0 miles
Clouds Scattered Clouds 1600 ft
Scattered Clouds 5000 ft
Heat Index 78 °F
Dew Point 69 °F
Humidity 77%
Rainfall 0.00 in
Snow Depth Not available.
UV 5 out of 12
Pollen 10.50 out of 12
Air Quality Not available.
Flu Activity Not available.
METAR KDRM 311955Z AUTO 00000KT 10SM SCT016 SCT050 23/18 A3001 RMK AO2 T02290183
Nowcast | as of 4:00 PM EDT on August 31, 2015

At 5 PM...partly cloudy. Temperature 78. South winds 8 mph. At 7 PM...partly cloudy. Temperature 71. South winds 9 mph. At 9 PM...mostly clear. Temperature 65. South winds 7 mph. At 11 PM...mostly clear. Temperature 64. South winds 6 mph.

×

10-Day Weather Forecast

×

Almanac

Astronomy

Aug. 31, 2015 Rise Set
Actual Time
Civil Twilight
Nautical Twilight
Astronomical Twilight
Moon
Length of Visible Light
Length of Day
Tomorrow will be .
, % of the Moon is Illuminated

Today's Extremes

State Highs State Lows

Community

WunderPhotos

Upload Photos

1,851,351 photos uploaded!

WunderBlogs® & News

Nearby

Air Quality

  Air Quality AQ Index Pollutant
Not available.

Snow Depth

Station Depth Elevation

Earthquake Activity

City Distance Mag. Time & Date
Minimum magnitude displayed is 2.5.

Coastal Water Temperatures

Place Temperature

Stations

Nearby Weather Stations

Station Location Temp. Windchill Dew Point Humidity Wind Precip. Elev Updated Type